Conger Corners, New York
Current Conditions -  °F | °C
As of 8:53 PM on Thursday 20 Nov 2014 (Local Time) from KRME Reporting Station
Clear Clear  
Wind Chill: 14°   Ceiling: Unl
Heat Index: 24°   Visibility: 10mi
Dew Point: 17°   Wind: 9mph
Humidity: 75%   Direction: 250°WSW
Pressure: 29.93"   Gusts: NA
Location:  42.925°N, 75.3719°W
Report Text: KRME 210153Z 25008KT 10SM CLR M04/M08 A2993 RMK AO2 SLP140 T10441083
Loading
Personal Weather Stations






























Interactive Weather Map New forecast layout! Learn more

10-Day Weather Forecast

Advertisements
Track Severe Weather on mobile